createdAt,value
2023-07-04T00:00:08.619Z,40.44
2023-07-04T00:01:08.617Z,50.92
2023-07-04T00:02:08.641Z,53.82
2023-07-04T00:03:08.642Z,52.53
2023-07-04T00:04:08.606Z,39.96
2023-07-04T00:05:08.556Z,40.28
2023-07-04T00:06:08.568Z,42.22
2023-07-04T00:07:08.549Z,47.21
2023-07-04T00:08:08.572Z,40.28
2023-07-04T00:09:08.516Z,39.48
2023-07-04T00:10:08.522Z,38.35
2023-07-04T00:11:08.545Z,40.12
2023-07-04T00:12:08.521Z,40.61
2023-07-04T00:13:08.515Z,38.67
2023-07-04T00:14:08.534Z,40.44
2023-07-04T00:15:08.462Z,49.15
2023-07-04T00:16:08.564Z,46.73
2023-07-04T00:17:08.540Z,39.96
2023-07-04T00:18:08.449Z,40.12
2023-07-04T00:19:08.414Z,40.12
2023-07-04T00:20:08.418Z,44.63
2023-07-04T00:23:41.828Z,44.15
2023-07-04T00:24:41.863Z,44.63
2023-07-04T00:25:41.838Z,38.99
2023-07-04T00:26:41.827Z,38.19
2023-07-04T00:27:41.790Z,37.71
2023-07-04T00:28:42.900Z,39.96
2023-07-04T00:29:42.925Z,41.89
2023-07-04T00:30:42.911Z,37.06
2023-07-04T00:31:42.869Z,37.22
2023-07-04T00:32:42.919Z,37.54
2023-07-04T00:33:42.850Z,46.73
2023-07-04T00:34:42.835Z,43.02
2023-07-04T00:35:42.838Z,42.22
2023-07-04T00:36:42.836Z,41.89
2023-07-04T00:37:42.823Z,41.89
2023-07-04T00:38:42.803Z,40.61
2023-07-04T00:39:42.779Z,38.19
2023-07-04T00:40:42.849Z,39.32
2023-07-04T00:41:42.791Z,38.67
2023-07-04T00:42:42.756Z,40.12
2023-07-04T00:43:42.754Z,42.70
2023-07-04T00:44:42.786Z,40.61
2023-07-04T00:45:42.732Z,41.57
2023-07-04T00:46:42.887Z,44.15
2023-07-04T00:47:42.745Z,40.77
2023-07-04T00:48:42.689Z,42.38
2023-07-04T00:49:42.705Z,46.08
2023-07-04T00:50:42.680Z,43.34
2023-07-04T00:51:42.740Z,38.67
2023-07-04T00:52:42.660Z,39.64
2023-07-04T00:53:42.641Z,46.57
2023-07-04T00:54:42.644Z,46.57
2023-07-04T00:55:42.626Z,39.64
2023-07-04T00:56:42.623Z,41.57
2023-07-04T00:57:42.637Z,42.70
2023-07-04T00:58:42.590Z,43.34
2023-07-04T00:59:42.586Z,43.99
2023-07-04T01:00:42.582Z,44.15
2023-07-04T01:01:42.576Z,43.18
2023-07-04T01:02:42.609Z,39.16
2023-07-04T01:03:42.659Z,44.31
2023-07-04T01:04:42.541Z,40.93
2023-07-04T01:05:42.540Z,38.03
2023-07-04T01:06:42.512Z,37.54
2023-07-04T01:07:42.513Z,41.57
2023-07-04T01:08:42.491Z,41.25
2023-07-04T01:09:42.497Z,41.09
2023-07-04T01:10:42.501Z,38.83
2023-07-04T01:11:42.479Z,37.54
2023-07-04T01:12:42.499Z,40.44
2023-07-04T01:13:42.488Z,39.16
2023-07-04T01:14:42.456Z,39.80
2023-07-04T01:15:42.473Z,48.02
2023-07-04T01:16:42.476Z,39.48
2023-07-04T01:17:42.549Z,39.96
2023-07-04T01:18:42.403Z,41.57
2023-07-04T01:19:42.397Z,46.89
2023-07-04T01:20:42.410Z,48.34
2023-07-04T01:21:42.396Z,40.77
2023-07-04T01:22:42.362Z,38.03
2023-07-04T01:23:42.359Z,39.16
2023-07-04T01:24:42.340Z,44.47
2023-07-04T01:25:42.344Z,43.34
2023-07-04T01:26:42.335Z,41.09
2023-07-04T01:27:42.356Z,39.64
2023-07-04T01:28:42.311Z,55.75
2023-07-04T01:29:42.285Z,44.96
2023-07-04T01:30:42.329Z,44.96
2023-07-04T01:31:42.334Z,40.77
2023-07-04T01:32:42.281Z,41.25
2023-07-04T01:33:42.271Z,44.96
2023-07-04T01:34:42.288Z,40.12
2023-07-04T01:35:42.250Z,40.12
2023-07-04T01:36:42.223Z,41.41
2023-07-04T01:37:42.288Z,44.31
2023-07-04T01:38:42.201Z,44.79
2023-07-04T01:39:42.192Z,40.28
2023-07-04T01:40:42.197Z,40.61
2023-07-04T01:41:42.229Z,42.70
2023-07-04T01:42:42.173Z,43.51
2023-07-04T01:43:42.157Z,42.86
2023-07-04T01:44:42.136Z,39.48
2023-07-04T01:45:42.170Z,40.28
2023-07-04T01:46:42.146Z,40.44
2023-07-04T01:47:42.155Z,44.63
2023-07-04T01:48:42.115Z,41.25
2023-07-04T01:49:42.109Z,40.28
2023-07-04T01:50:42.084Z,47.21
2023-07-04T01:51:42.063Z,45.76
2023-07-04T01:52:42.128Z,45.60
2023-07-04T01:53:42.072Z,44.63
2023-07-04T01:54:42.067Z,45.44
2023-07-04T01:55:42.064Z,40.77
2023-07-04T01:56:42.037Z,40.77
2023-07-04T01:57:42.045Z,48.34
2023-07-04T01:58:42.064Z,43.67
2023-07-04T01:59:41.996Z,41.09
2023-07-04T02:00:41.989Z,44.96
2023-07-04T02:01:41.975Z,47.70
2023-07-04T02:02:42.096Z,42.70
2023-07-04T02:03:41.989Z,39.96
2023-07-04T02:04:42.138Z,45.12
2023-07-04T02:05:41.939Z,44.31
2023-07-04T02:06:41.919Z,40.44
2023-07-04T02:07:41.945Z,42.22
2023-07-04T02:08:41.975Z,44.79
2023-07-04T02:09:41.895Z,42.22
2023-07-04T02:10:41.880Z,41.73
2023-07-04T02:11:41.923Z,45.92
2023-07-04T02:12:41.888Z,51.40
2023-07-04T02:13:42.867Z,40.93
2023-07-04T02:14:41.839Z,40.61
2023-07-04T02:15:41.920Z,43.83
2023-07-04T02:16:41.880Z,44.96
2023-07-04T02:17:41.970Z,40.61
2023-07-04T02:18:41.824Z,40.28
2023-07-04T02:19:41.820Z,41.09
2023-07-04T02:20:41.795Z,40.61
2023-07-04T02:21:41.776Z,48.18
2023-07-04T02:22:41.774Z,51.40
2023-07-04T02:23:41.764Z,44.79
2023-07-04T02:24:41.778Z,42.06
2023-07-04T02:25:41.762Z,42.70
2023-07-04T02:26:41.757Z,44.15
2023-07-04T02:27:41.756Z,47.21
2023-07-04T02:28:41.755Z,44.15
2023-07-04T02:29:41.706Z,51.40
2023-07-04T02:30:41.685Z,45.60
2023-07-04T02:31:41.712Z,44.63
2023-07-04T02:32:41.721Z,42.38
2023-07-04T02:33:41.671Z,41.89
2023-07-04T02:34:41.656Z,44.96
2023-07-04T02:35:41.628Z,43.34
2023-07-04T02:36:41.667Z,43.02
2023-07-04T02:37:41.631Z,50.11
2023-07-04T02:38:41.628Z,48.98
2023-07-04T02:39:41.583Z,47.70
2023-07-04T02:40:41.593Z,46.89
2023-07-04T02:41:41.559Z,44.63
2023-07-04T02:42:41.578Z,50.27
2023-07-04T02:43:41.555Z,43.02
2023-07-04T02:44:41.553Z,43.18
2023-07-04T02:45:41.580Z,44.47
2023-07-04T02:46:41.599Z,46.25
2023-07-04T02:47:41.557Z,44.63
2023-07-04T02:48:41.532Z,49.15
2023-07-04T02:49:41.541Z,48.98
2023-07-04T02:50:41.477Z,48.34
2023-07-04T02:51:41.480Z,46.89
2023-07-04T02:52:41.474Z,45.44
2023-07-04T02:53:41.527Z,47.53
2023-07-04T02:54:41.455Z,43.99
2023-07-04T02:55:41.422Z,43.51
2023-07-04T02:56:41.431Z,46.57
2023-07-04T02:57:41.404Z,45.44
2023-07-04T02:58:41.511Z,45.76
2023-07-04T02:59:41.411Z,48.50
2023-07-04T03:00:41.420Z,54.46
2023-07-04T03:01:41.510Z,45.28
2023-07-04T03:02:41.532Z,44.31
2023-07-04T03:03:41.551Z,48.02
2023-07-04T03:04:41.397Z,48.34
2023-07-04T03:05:41.319Z,48.34
2023-07-04T03:06:41.331Z,45.60
2023-07-04T03:07:41.323Z,45.92
2023-07-04T03:08:41.293Z,48.02
2023-07-04T03:09:41.291Z,47.70
2023-07-04T03:10:41.271Z,47.53
2023-07-04T03:11:41.261Z,57.69
2023-07-04T03:12:42.348Z,48.34
2023-07-04T03:13:41.312Z,45.28
2023-07-04T03:14:41.242Z,47.86
2023-07-04T03:15:41.238Z,49.15
2023-07-04T03:16:41.258Z,47.70
2023-07-04T03:17:41.383Z,48.34
2023-07-04T03:18:41.192Z,50.43
2023-07-04T03:19:41.211Z,49.79
2023-07-04T03:20:41.190Z,49.95
2023-07-04T03:21:41.180Z,49.47
2023-07-04T03:22:41.157Z,46.57
2023-07-04T03:23:41.139Z,51.72
2023-07-04T03:24:41.157Z,52.85
2023-07-04T03:25:41.108Z,54.95
2023-07-04T03:26:41.107Z,49.95
2023-07-04T03:27:41.095Z,51.88
2023-07-04T03:28:41.110Z,51.56
2023-07-04T03:29:41.074Z,45.92
2023-07-04T03:30:41.121Z,49.63
2023-07-04T03:31:41.062Z,50.76
2023-07-04T03:32:41.124Z,48.66
2023-07-04T03:33:41.045Z,48.82
2023-07-04T03:34:41.036Z,53.98
2023-07-04T03:35:57.185Z,50.76
2023-07-04T03:36:42.062Z,51.08
2023-07-04T03:37:40.988Z,53.33
2023-07-04T03:38:40.983Z,52.21
2023-07-04T03:39:40.999Z,51.72
2023-07-04T03:40:40.963Z,52.53
2023-07-04T03:41:40.944Z,51.72
2023-07-04T03:42:40.943Z,51.88
2023-07-04T03:43:40.926Z,51.56
2023-07-04T03:44:40.940Z,47.86
2023-07-04T03:45:40.897Z,48.66
2023-07-04T03:46:40.914Z,52.85
2023-07-04T03:47:40.949Z,50.60
2023-07-04T03:48:41.024Z,52.05
2023-07-04T03:49:40.929Z,50.60
2023-07-04T03:50:40.852Z,52.37
2023-07-04T03:51:40.853Z,51.72
2023-07-04T03:52:40.866Z,49.15
2023-07-04T03:53:40.844Z,48.98
2023-07-04T03:54:40.813Z,51.88
2023-07-04T03:55:40.818Z,48.66
2023-07-04T03:56:40.808Z,51.72
2023-07-04T03:57:40.809Z,52.21
2023-07-04T03:58:40.795Z,49.31
2023-07-04T03:59:40.770Z,51.88
2023-07-04T04:00:40.770Z,50.92
2023-07-04T04:01:40.754Z,51.88
2023-07-04T04:02:40.783Z,50.60
2023-07-04T04:03:40.920Z,53.33
2023-07-04T04:04:41.175Z,49.63
2023-07-04T04:05:40.732Z,52.85
2023-07-04T04:06:40.741Z,51.40
2023-07-04T04:07:41.706Z,50.60
2023-07-04T04:08:40.668Z,50.92
2023-07-04T04:09:40.661Z,49.63
2023-07-04T04:10:40.667Z,49.63
2023-07-04T04:11:40.649Z,48.34
2023-07-04T04:12:40.662Z,50.27
2023-07-04T04:13:40.672Z,51.24
2023-07-04T04:14:40.627Z,50.92
2023-07-04T04:15:40.633Z,53.98
2023-07-04T04:16:40.664Z,51.08
2023-07-04T04:17:40.669Z,49.31
2023-07-04T04:18:40.576Z,49.79
2023-07-04T04:19:40.571Z,48.98
2023-07-04T04:20:40.564Z,51.40
2023-07-04T04:21:40.545Z,50.92
2023-07-04T04:22:40.583Z,53.82
2023-07-04T04:23:40.529Z,52.69
2023-07-04T04:24:40.537Z,50.92
2023-07-04T04:25:40.530Z,52.53
2023-07-04T04:26:40.510Z,48.66
2023-07-04T04:27:40.515Z,52.21
2023-07-04T04:28:40.481Z,48.66
2023-07-04T04:29:40.473Z,47.53
2023-07-04T04:30:40.489Z,46.25
2023-07-04T04:31:40.471Z,52.85
2023-07-04T04:32:40.587Z,52.85
2023-07-04T04:33:40.428Z,50.76
2023-07-04T04:34:40.425Z,50.43
2023-07-04T04:35:40.433Z,52.85
2023-07-04T04:36:40.507Z,51.56
2023-07-04T04:37:40.397Z,51.88
2023-07-04T04:38:40.396Z,51.56
2023-07-04T04:39:40.363Z,49.31
2023-07-04T04:40:40.415Z,49.15
2023-07-04T04:41:40.358Z,50.76
2023-07-04T04:42:40.383Z,50.76
2023-07-04T04:43:40.325Z,50.76
2023-07-04T04:44:40.331Z,52.69
2023-07-04T04:45:40.311Z,53.01
2023-07-04T04:46:40.357Z,50.92
2023-07-04T04:47:40.365Z,52.21
2023-07-04T04:48:40.271Z,52.85
2023-07-04T04:49:40.296Z,52.53
2023-07-04T04:50:40.273Z,52.37
2023-07-04T04:51:40.291Z,47.53
2023-07-04T04:52:40.239Z,49.79
2023-07-04T04:53:40.381Z,51.56
2023-07-04T04:54:40.221Z,50.27
2023-07-04T04:55:40.265Z,51.56
2023-07-04T04:56:40.220Z,51.88
2023-07-04T04:57:40.229Z,51.40
2023-07-04T04:58:40.196Z,53.33
2023-07-04T04:59:40.171Z,50.43
2023-07-04T05:00:40.171Z,52.05
2023-07-04T05:01:40.253Z,51.88
2023-07-04T05:02:40.221Z,48.50
2023-07-04T05:03:40.146Z,50.27
2023-07-04T05:04:40.128Z,48.50
2023-07-04T05:05:40.123Z,49.47
2023-07-04T05:06:40.105Z,47.53
2023-07-04T05:07:40.128Z,52.37
2023-07-04T05:08:40.092Z,49.63
2023-07-04T05:09:40.079Z,50.27
2023-07-04T05:10:40.078Z,50.27
2023-07-04T05:11:40.058Z,51.40
2023-07-04T05:12:40.085Z,51.56
2023-07-04T05:13:40.124Z,51.40
2023-07-04T05:14:40.051Z,50.76
2023-07-04T05:15:40.025Z,52.37
2023-07-04T05:16:40.072Z,52.53
2023-07-04T05:17:40.106Z,50.60
2023-07-04T05:18:40.004Z,52.69
2023-07-04T05:19:39.995Z,50.27
2023-07-04T05:20:39.993Z,52.21
2023-07-04T05:21:39.987Z,51.72
2023-07-04T05:22:39.955Z,51.72
2023-07-04T05:23:39.971Z,53.01
2023-07-04T05:24:39.967Z,52.85
2023-07-04T05:25:39.941Z,49.79
2023-07-04T05:26:39.912Z,52.85
2023-07-04T05:27:39.906Z,49.63
2023-07-04T05:28:39.921Z,52.37
2023-07-04T05:29:39.931Z,49.31
2023-07-04T05:30:39.910Z,51.08
2023-07-04T05:31:39.943Z,52.21
2023-07-04T05:32:39.889Z,51.56
2023-07-04T05:33:39.870Z,48.34
2023-07-04T05:34:39.867Z,50.92
2023-07-04T05:35:39.832Z,50.60
2023-07-04T05:36:39.811Z,49.79
2023-07-04T05:37:39.819Z,49.47
2023-07-04T05:38:39.827Z,50.60
2023-07-04T05:39:39.801Z,50.76
2023-07-04T05:40:39.774Z,50.60
2023-07-04T05:41:39.771Z,51.40
2023-07-04T05:42:39.788Z,51.40
2023-07-04T05:43:39.753Z,48.82
2023-07-04T05:44:39.778Z,51.56
2023-07-04T05:45:39.758Z,49.79
2023-07-04T05:46:39.733Z,53.33
2023-07-04T05:47:39.751Z,49.95
2023-07-04T05:48:39.741Z,47.53
2023-07-04T05:49:39.692Z,51.24
2023-07-04T05:50:39.682Z,49.63
2023-07-04T05:51:39.664Z,51.72
2023-07-04T05:52:39.680Z,47.21
2023-07-04T05:53:39.722Z,50.27
2023-07-04T05:54:39.646Z,48.34
2023-07-04T05:55:39.645Z,48.98
2023-07-04T05:56:39.621Z,49.79
2023-07-04T05:57:39.618Z,49.31
2023-07-04T05:58:39.621Z,49.95
2023-07-04T05:59:39.642Z,50.27
2023-07-04T06:00:39.594Z,49.63
2023-07-04T06:01:39.580Z,49.47
2023-07-04T06:02:39.612Z,49.79
2023-07-04T06:03:39.740Z,51.72
2023-07-04T06:04:39.684Z,48.34
2023-07-04T06:05:39.547Z,47.05
2023-07-04T06:06:39.566Z,49.47
2023-07-04T06:07:39.528Z,49.15
2023-07-04T06:08:39.519Z,49.63
2023-07-04T06:09:39.523Z,49.63
2023-07-04T06:10:39.514Z,50.43
2023-07-04T06:11:39.503Z,48.50
2023-07-04T06:12:39.483Z,50.11
2023-07-04T06:13:39.488Z,48.50
2023-07-04T06:14:39.510Z,48.50
2023-07-04T06:15:39.493Z,46.57
2023-07-04T06:16:39.482Z,46.41
2023-07-04T06:17:39.460Z,45.28
2023-07-04T06:18:39.483Z,48.98
2023-07-04T06:19:39.428Z,48.18
2023-07-04T06:20:39.400Z,49.31
2023-07-04T06:21:44.343Z,48.34
2023-07-04T06:23:06.309Z,48.18
2023-07-04T06:23:39.389Z,47.05
2023-07-04T06:24:39.391Z,46.73
2023-07-04T06:25:40.340Z,47.86
2023-07-04T06:26:39.376Z,47.37
2023-07-04T06:27:39.324Z,48.98
2023-07-04T06:28:39.355Z,45.76
2023-07-04T06:29:39.305Z,47.21
2023-07-04T06:30:39.366Z,48.18
2023-07-04T06:31:39.328Z,45.76
2023-07-04T06:32:39.320Z,48.66
2023-07-04T06:33:41.911Z,47.86
2023-07-04T06:34:39.262Z,46.57
2023-07-04T06:35:39.256Z,50.11
2023-07-04T06:36:39.256Z,49.15
2023-07-04T06:37:39.217Z,48.98
2023-07-04T06:38:39.241Z,48.02
2023-07-04T06:39:39.208Z,48.18
2023-07-04T06:40:39.220Z,45.76
2023-07-04T06:41:39.188Z,48.50
2023-07-04T06:42:39.171Z,48.50
2023-07-04T06:43:39.161Z,51.40
2023-07-04T06:44:39.225Z,49.63
2023-07-04T06:45:39.149Z,49.31
2023-07-04T06:46:39.203Z,47.53
2023-07-04T06:47:39.137Z,46.25
2023-07-04T06:48:39.113Z,44.96
2023-07-04T06:49:40.124Z,44.63
2023-07-04T06:50:39.145Z,48.82
2023-07-04T06:51:39.107Z,46.89
2023-07-04T06:52:39.189Z,47.37
2023-07-04T06:53:39.092Z,48.66
2023-07-04T06:54:39.079Z,50.11
2023-07-04T06:55:41.024Z,46.73
2023-07-04T06:56:39.140Z,48.34
2023-07-04T06:57:39.043Z,48.82
2023-07-04T06:58:39.049Z,48.18
2023-07-04T06:59:39.024Z,45.60
2023-07-04T07:00:40.827Z,48.34
2023-07-04T07:01:39.063Z,48.34
2023-07-04T07:02:39.104Z,48.02
2023-07-04T07:03:39.910Z,48.34
2023-07-04T07:04:38.989Z,44.96
2023-07-04T07:05:39.140Z,47.05
2023-07-04T07:06:38.938Z,48.02
2023-07-04T07:07:38.930Z,43.99
2023-07-04T07:08:38.918Z,46.57
2023-07-04T07:09:38.948Z,46.57
2023-07-04T07:10:38.974Z,46.25
2023-07-04T07:11:38.916Z,45.28
2023-07-04T07:12:38.886Z,44.79
2023-07-04T07:13:38.962Z,47.37
2023-07-04T07:14:38.870Z,46.57
2023-07-04T07:15:38.882Z,45.92
2023-07-04T07:16:38.916Z,46.08
2023-07-04T07:17:38.985Z,45.44
2023-07-04T07:18:38.858Z,46.08
2023-07-04T07:19:40.493Z,48.50
2023-07-04T07:20:38.810Z,44.96
2023-07-04T07:21:38.803Z,46.08
2023-07-04T07:22:38.840Z,45.12
2023-07-04T07:23:38.779Z,44.96
2023-07-04T07:24:38.792Z,48.50
2023-07-04T07:25:38.765Z,47.53
2023-07-04T07:26:38.755Z,52.53
2023-07-04T07:27:38.752Z,53.01
2023-07-04T07:28:38.745Z,48.34
2023-07-04T07:29:38.753Z,48.34
2023-07-04T07:30:39.780Z,48.18
2023-07-04T07:31:38.747Z,48.98
2023-07-04T07:32:38.712Z,50.11
2023-07-04T07:33:38.672Z,44.96
2023-07-04T07:34:38.702Z,49.15
2023-07-04T07:35:38.651Z,50.27
2023-07-04T07:36:39.514Z,50.92
2023-07-04T07:37:38.655Z,48.34
2023-07-04T07:38:38.661Z,47.86
2023-07-04T07:39:38.649Z,49.15
2023-07-04T07:40:38.630Z,50.92
2023-07-04T07:41:38.609Z,48.98
2023-07-04T07:42:38.612Z,49.63
2023-07-04T07:43:38.593Z,50.27
2023-07-04T07:44:38.597Z,49.79
2023-07-04T07:45:38.575Z,48.50
2023-07-04T07:46:38.854Z,49.79
2023-07-04T07:47:38.680Z,48.98
2023-07-04T07:48:38.608Z,46.08
2023-07-04T07:49:38.534Z,46.57
2023-07-04T07:50:38.582Z,50.11
2023-07-04T07:51:38.541Z,51.08
2023-07-04T07:52:38.506Z,48.66
2023-07-04T07:53:38.606Z,48.02
2023-07-04T07:54:38.488Z,48.50
2023-07-04T07:55:38.475Z,46.25
2023-07-04T07:56:38.510Z,47.05
2023-07-04T07:57:38.468Z,45.28
2023-07-04T07:58:38.511Z,46.57
2023-07-04T07:59:38.433Z,47.86
2023-07-04T08:00:38.438Z,47.70
2023-07-04T08:01:38.413Z,45.60
2023-07-04T08:02:38.479Z,43.83
2023-07-04T08:03:38.432Z,48.98
2023-07-04T08:04:38.508Z,51.56
2023-07-04T08:05:38.377Z,44.79
2023-07-04T08:06:38.457Z,44.79
2023-07-04T08:07:38.409Z,48.34
2023-07-04T08:08:38.364Z,48.50
2023-07-04T08:09:38.343Z,48.18
2023-07-04T08:10:38.339Z,45.28
2023-07-04T08:11:38.359Z,47.05
2023-07-04T08:12:38.307Z,48.18
2023-07-04T08:13:38.394Z,48.18
2023-07-04T08:14:38.285Z,47.37
2023-07-04T08:15:38.296Z,46.57
2023-07-04T08:16:38.314Z,46.25
2023-07-04T08:17:38.307Z,44.79
2023-07-04T08:18:38.260Z,45.76
2023-07-04T08:19:38.250Z,44.79
2023-07-04T08:20:38.284Z,45.44
2023-07-04T08:21:38.261Z,47.86
2023-07-04T08:22:38.220Z,47.37
2023-07-04T08:23:38.206Z,47.86
2023-07-04T08:24:38.200Z,48.18
2023-07-04T08:25:38.189Z,46.73
2023-07-04T08:26:38.183Z,48.50
2023-07-04T08:27:38.221Z,47.53
2023-07-04T08:28:38.158Z,48.82
2023-07-04T08:29:38.140Z,48.34
2023-07-04T08:30:38.141Z,48.02
2023-07-04T08:31:38.189Z,48.34
2023-07-04T08:32:38.146Z,46.08
2023-07-04T08:33:38.127Z,47.70
2023-07-04T08:34:38.111Z,48.66
2023-07-04T08:35:38.079Z,48.34
2023-07-04T08:36:38.084Z,48.98
2023-07-04T08:37:38.097Z,48.98
2023-07-04T08:38:38.058Z,48.18
2023-07-04T08:39:38.074Z,47.53
2023-07-04T08:40:38.040Z,48.02
2023-07-04T08:41:38.057Z,48.02
2023-07-04T08:42:38.042Z,50.27
2023-07-04T08:43:38.041Z,46.41
2023-07-04T08:44:38.015Z,51.40
2023-07-04T08:45:37.988Z,51.40
2023-07-04T08:46:38.069Z,46.89
2023-07-04T08:47:38.010Z,47.37
2023-07-04T08:48:37.961Z,47.21
2023-07-04T08:49:37.956Z,47.05
2023-07-04T08:50:39.822Z,48.66
2023-07-04T08:51:37.936Z,48.34
2023-07-04T08:52:38.947Z,47.53
2023-07-04T08:53:37.920Z,47.37
2023-07-04T08:54:37.907Z,48.66
2023-07-04T08:55:37.895Z,47.21
2023-07-04T08:56:37.880Z,48.18
2023-07-04T08:57:37.889Z,48.18
2023-07-04T08:58:37.897Z,47.53
2023-07-04T08:59:37.896Z,45.76
2023-07-04T09:00:37.848Z,48.18
2023-07-04T09:01:37.896Z,48.18
2023-07-04T09:02:37.914Z,48.66
2023-07-04T09:03:37.859Z,46.25
2023-07-04T09:04:37.873Z,47.53
2023-07-04T09:05:37.829Z,46.25
2023-07-04T09:06:37.808Z,46.89
2023-07-04T09:07:37.771Z,46.57
2023-07-04T09:08:37.763Z,48.02
2023-07-04T09:09:37.759Z,49.47
2023-07-04T09:10:37.815Z,47.70
2023-07-04T09:11:37.756Z,47.21
2023-07-04T09:12:37.735Z,47.21
2023-07-04T09:13:37.767Z,47.37
2023-07-04T09:14:37.713Z,48.02
2023-07-04T09:15:37.714Z,46.08
2023-07-04T09:16:37.762Z,48.66
2023-07-04T09:17:40.170Z,46.57
2023-07-04T09:18:37.718Z,47.86
2023-07-04T09:19:37.666Z,50.27
2023-07-04T09:20:37.673Z,45.92
2023-07-04T09:21:37.672Z,47.37
2023-07-04T09:22:38.626Z,47.86
2023-07-04T09:23:37.631Z,49.31
2023-07-04T09:24:37.616Z,49.95
2023-07-04T09:25:37.606Z,48.50
2023-07-04T09:26:37.762Z,48.82
2023-07-04T09:27:37.591Z,47.86
2023-07-04T09:28:37.605Z,48.66
2023-07-04T09:29:37.578Z,48.50
2023-07-04T09:30:37.566Z,46.57
2023-07-04T09:31:37.593Z,48.66
2023-07-04T09:32:37.574Z,48.66
2023-07-04T09:33:37.532Z,48.34
2023-07-04T09:34:37.528Z,48.50
2023-07-04T09:35:37.534Z,50.27
2023-07-04T09:36:37.552Z,48.98
2023-07-04T09:37:37.514Z,48.18
2023-07-04T09:38:37.493Z,47.70
2023-07-04T09:39:37.505Z,49.15
2023-07-04T09:40:37.532Z,47.05
2023-07-04T09:41:44.181Z,48.82
2023-07-04T09:42:47.260Z,48.34
2023-07-04T09:43:39.429Z,47.86
2023-07-04T09:44:37.457Z,48.34
2023-07-04T09:45:37.510Z,49.31
2023-07-04T09:46:37.410Z,50.60
2023-07-04T09:47:37.496Z,49.47
2023-07-04T09:48:37.389Z,48.98
2023-07-04T09:49:37.391Z,48.66
2023-07-04T09:50:37.388Z,47.37
2023-07-04T09:51:37.394Z,47.70
2023-07-04T09:52:37.338Z,48.50
2023-07-04T09:53:38.368Z,46.73
2023-07-04T09:54:38.748Z,48.34
2023-07-04T09:55:38.313Z,49.15
2023-07-04T09:56:37.344Z,48.50
2023-07-04T09:57:37.310Z,51.40
2023-07-04T09:58:37.376Z,51.24
2023-07-04T09:59:37.306Z,47.70
2023-07-04T10:00:37.266Z,46.73
2023-07-04T10:01:37.343Z,47.70
2023-07-04T10:02:37.405Z,49.47
2023-07-04T10:03:37.329Z,49.95
2023-07-04T10:04:37.259Z,48.34
2023-07-04T10:05:37.235Z,47.86
2023-07-04T10:06:37.231Z,47.05
2023-07-04T10:07:37.262Z,46.57
2023-07-04T10:08:37.200Z,47.70
2023-07-04T10:09:37.682Z,47.53
2023-07-04T10:10:37.183Z,46.08
2023-07-04T10:11:37.175Z,45.60
2023-07-04T10:12:37.150Z,49.79
2023-07-04T10:13:37.203Z,48.50
2023-07-04T10:14:37.135Z,47.70
2023-07-04T10:15:37.166Z,47.86
2023-07-04T10:16:37.125Z,48.02
2023-07-04T10:17:37.299Z,48.50
2023-07-04T10:18:37.084Z,47.53
2023-07-04T10:19:37.082Z,45.92
2023-07-04T10:20:37.104Z,46.08
2023-07-04T10:21:37.061Z,51.88
2023-07-04T10:22:37.065Z,48.98
2023-07-04T10:23:37.078Z,48.66
2023-07-04T10:24:37.037Z,47.70
2023-07-04T10:25:37.018Z,46.57
2023-07-04T10:26:37.033Z,46.41
2023-07-04T10:27:37.313Z,46.73
2023-07-04T10:28:37.007Z,48.82
2023-07-04T10:29:37.025Z,49.15
2023-07-04T10:30:36.990Z,48.02
2023-07-04T10:31:37.016Z,48.34
2023-07-04T10:32:37.002Z,45.44
2023-07-04T10:33:36.948Z,49.79
2023-07-04T10:34:36.977Z,48.98
2023-07-04T10:35:36.920Z,47.53
2023-07-04T10:36:36.912Z,50.11
2023-07-04T10:37:36.952Z,48.82
2023-07-04T10:38:36.904Z,47.05
2023-07-04T10:39:36.887Z,50.11
2023-07-04T10:40:36.885Z,47.05
2023-07-04T10:41:38.866Z,48.34
2023-07-04T10:42:36.886Z,49.79
2023-07-04T10:43:36.862Z,50.43
2023-07-04T10:44:36.880Z,49.47
2023-07-04T10:45:42.237Z,47.37
2023-07-04T10:46:38.848Z,48.66
2023-07-04T10:47:36.857Z,48.34
2023-07-04T10:48:36.799Z,47.05
2023-07-04T10:49:36.800Z,47.86
2023-07-04T10:50:36.865Z,48.18
2023-07-04T10:51:36.786Z,48.50
2023-07-04T10:52:36.766Z,46.89
2023-07-04T10:53:36.755Z,48.34
2023-07-04T10:54:36.753Z,48.34
2023-07-04T10:55:36.756Z,48.82
2023-07-04T10:56:36.735Z,48.02
2023-07-04T10:57:36.722Z,46.89
2023-07-04T10:58:36.697Z,46.73
2023-07-04T10:59:36.733Z,46.89
2023-07-04T11:00:36.710Z,48.34
2023-07-04T11:01:36.746Z,47.21
2023-07-04T11:02:36.730Z,46.73
2023-07-04T11:03:36.756Z,47.53
2023-07-04T11:04:36.667Z,49.79
2023-07-04T11:05:36.640Z,49.79
2023-07-04T11:06:36.617Z,48.18
2023-07-04T11:07:36.610Z,47.53
2023-07-04T11:08:36.631Z,48.82
2023-07-04T11:09:36.600Z,46.89
2023-07-04T11:10:36.613Z,48.98
2023-07-04T11:11:36.572Z,49.15
2023-07-04T11:12:36.567Z,48.02
2023-07-04T11:13:36.618Z,50.92
2023-07-04T11:14:36.551Z,49.31
2023-07-04T11:15:36.561Z,48.82
2023-07-04T11:16:36.567Z,48.98
2023-07-04T11:17:36.616Z,47.05
2023-07-04T11:18:36.540Z,48.98
2023-07-04T11:19:36.490Z,49.95
2023-07-04T11:20:36.492Z,46.57
2023-07-04T11:21:36.515Z,49.79
2023-07-04T11:22:36.475Z,44.63
2023-07-04T11:23:36.542Z,48.98
2023-07-04T11:24:36.459Z,47.05
2023-07-04T11:25:36.452Z,47.53
2023-07-04T11:26:36.431Z,48.02
2023-07-04T11:27:36.461Z,48.34
2023-07-04T11:28:36.509Z,47.05
2023-07-04T11:29:36.440Z,48.02
2023-07-04T11:30:36.423Z,48.82
2023-07-04T11:31:36.774Z,48.18
2023-07-04T11:32:36.426Z,45.92
2023-07-04T11:33:36.368Z,47.05
2023-07-04T11:34:36.377Z,46.89
2023-07-04T11:35:36.371Z,47.37
2023-07-04T11:36:36.327Z,47.37
2023-07-04T11:37:36.317Z,49.15
2023-07-04T11:38:36.343Z,48.82
2023-07-04T11:39:36.338Z,49.79
2023-07-04T11:40:36.335Z,46.25
2023-07-04T11:41:36.317Z,46.25
2023-07-04T11:42:36.322Z,47.05
2023-07-04T11:43:36.264Z,46.57
2023-07-04T11:44:37.482Z,49.15
2023-07-04T11:45:36.256Z,48.50
2023-07-04T11:46:36.377Z,47.21
2023-07-04T11:47:39.085Z,47.05
2023-07-04T11:48:36.240Z,48.18
2023-07-04T11:49:36.248Z,48.34
2023-07-04T11:50:36.216Z,47.53
2023-07-04T11:51:36.191Z,47.86
2023-07-04T11:52:36.189Z,47.05
2023-07-04T11:53:37.448Z,48.98
2023-07-04T11:54:36.152Z,48.98
2023-07-04T11:55:36.236Z,49.15
2023-07-04T11:56:36.139Z,47.70
2023-07-04T11:57:36.116Z,49.63
2023-07-04T11:58:36.123Z,49.31
2023-07-04T11:59:36.104Z,48.34
2023-07-04T12:00:36.102Z,48.34
2023-07-04T12:01:36.108Z,49.15
2023-07-04T12:02:36.115Z,48.98
2023-07-04T12:03:36.213Z,48.50
2023-07-04T12:04:36.178Z,48.98
2023-07-04T12:05:36.046Z,51.88
2023-07-04T12:06:36.146Z,50.27
2023-07-04T12:07:36.022Z,48.50
2023-07-04T12:08:36.004Z,50.76
2023-07-04T12:09:36.009Z,51.72
2023-07-04T12:10:35.990Z,50.92
2023-07-04T12:11:35.986Z,48.34
2023-07-04T12:12:35.990Z,46.89
2023-07-04T12:13:36.102Z,49.31
2023-07-04T12:14:35.953Z,48.82
2023-07-04T12:15:35.952Z,48.34
2023-07-04T12:16:36.023Z,47.70
2023-07-04T12:17:36.010Z,47.70
2023-07-04T12:18:35.968Z,50.92
2023-07-04T12:19:35.900Z,49.79
2023-07-04T12:20:35.949Z,49.31
2023-07-04T12:21:35.885Z,50.27
2023-07-04T12:23:07.821Z,49.31
2023-07-04T12:23:35.908Z,50.76
2023-07-04T12:24:35.856Z,49.15
2023-07-04T12:25:35.908Z,49.31
2023-07-04T12:26:35.855Z,48.34
2023-07-04T12:27:35.860Z,50.43
2023-07-04T12:28:35.858Z,49.95
2023-07-04T12:30:39.080Z,49.47
2023-07-04T12:32:36.834Z,48.02
2023-07-04T12:33:35.766Z,48.18
2023-07-04T12:35:10.836Z,49.79
2023-07-04T12:35:36.930Z,49.15
2023-07-04T12:36:35.737Z,51.24
2023-07-04T12:37:35.720Z,48.34
2023-07-04T12:38:35.784Z,49.31
2023-07-04T12:39:35.714Z,49.79
2023-07-04T12:40:35.769Z,50.11
2023-07-04T12:41:35.683Z,49.63
2023-07-04T12:42:35.739Z,51.08
2023-07-04T12:44:39.905Z,48.82
2023-07-04T12:45:38.000Z,51.40
2023-07-04T12:47:36.996Z,49.47
2023-07-04T12:49:36.663Z,48.02
2023-07-04T12:50:35.776Z,47.21
2023-07-04T12:51:35.591Z,49.15
2023-07-04T12:52:35.590Z,52.05
2023-07-04T12:53:35.570Z,55.27
2023-07-04T12:54:35.545Z,47.70
2023-07-04T12:55:35.573Z,47.70
2023-07-04T12:56:35.569Z,48.50
2023-07-04T12:57:35.528Z,46.57
2023-07-04T12:58:35.550Z,46.57
2023-07-04T12:59:35.528Z,50.11